Terminal Aerodrome Forecast
Issued by NWS

Home | Current Version | Previous Version | Text Only | Print | Product List | Glossary On
Versions: 1 2 3 4 5 6 7 8 9 10 11 12 13 14 15 16 17
000
FTUS41 KPBZ 300500
TAFBVI
TAF
KBVI 300520Z 3006/3106 00000KT P6SM SKC
     FM300700 VRB03KT P6SM BKN060
     FM301600 25012KT P6SM VCSH BKN035
     FM302300 23005KT P6SM BKN050
      AMD NOT SKED=

USA.gov is the U.S. government's official web portal to all federal, state and local government web resources and services.